createdAt,value
2022-12-19T00:00:02.045Z,101164.78
2022-12-19T00:01:16.127Z,101173.84
2022-12-19T00:02:18.076Z,101176.66
2022-12-19T00:03:21.058Z,101172.25
2022-12-19T00:04:22.848Z,101166.84
2022-12-19T00:05:25.755Z,101167.72
2022-12-19T00:06:29.622Z,101173.00
2022-12-19T00:07:31.359Z,101176.66
2022-12-19T00:08:34.108Z,101170.41
2022-12-19T00:09:35.787Z,101165.75
2022-12-19T00:10:38.478Z,101172.88
2022-12-19T00:11:40.967Z,101178.19
2022-12-19T00:12:44.007Z,101175.34
2022-12-19T00:13:45.893Z,101178.91
2022-12-19T00:14:49.110Z,101180.63
2022-12-19T00:15:52.291Z,101175.97
2022-12-19T00:16:54.908Z,101177.72
2022-12-19T00:17:56.659Z,101175.78
2022-12-19T00:19:01.262Z,101181.06
2022-12-19T00:20:03.216Z,101178.38
2022-12-19T00:21:06.754Z,101172.84
2022-12-19T00:22:11.325Z,101167.44
2022-12-19T00:23:14.145Z,101167.34
2022-12-19T00:24:21.375Z,101168.22
2022-12-19T00:25:24.572Z,101175.34
2022-12-19T00:26:28.274Z,101158.28
2022-12-19T00:27:35.916Z,101165.38
2022-12-19T00:28:37.726Z,101159.00
2022-12-19T00:29:40.481Z,101166.38
2022-12-19T00:30:42.247Z,101165.38
2022-12-19T00:31:47.216Z,101163.53
2022-12-19T00:32:49.114Z,101164.41
2022-12-19T00:33:51.848Z,101159.88
2022-12-19T00:34:53.611Z,101160.84
2022-12-19T00:35:58.982Z,101159.00
2022-12-19T00:37:00.626Z,101161.59
2022-12-19T00:38:03.955Z,101151.78
2022-12-19T00:39:08.425Z,101153.41
2022-12-19T00:40:12.490Z,101154.13
2022-12-19T00:41:16.163Z,101148.53
2022-12-19T00:42:18.877Z,101143.13
2022-12-19T00:43:20.720Z,101141.28
2022-12-19T00:44:23.381Z,101143.88
2022-12-19T00:45:25.147Z,101142.91
2022-12-19T00:46:28.546Z,101139.22
2022-12-19T00:47:31.673Z,101138.25
2022-12-19T00:48:34.772Z,101142.66
2022-12-19T00:49:36.487Z,101146.13
2022-12-19T00:50:40.474Z,101144.28
2022-12-19T00:51:42.136Z,101139.75
2022-12-19T00:52:44.786Z,101132.38
2022-12-19T00:53:48.450Z,101132.28
2022-12-19T00:54:51.254Z,101135.09
2022-12-19T00:55:52.991Z,101138.53
2022-12-19T00:56:55.615Z,101134.88
2022-12-19T00:57:57.495Z,101143.84
2022-12-19T00:59:03.590Z,101137.44
2022-12-19T01:00:06.594Z,101153.53
2022-12-19T01:01:10.729Z,101148.03
2022-12-19T01:02:12.609Z,101143.50
2022-12-19T01:03:16.905Z,101139.78
2022-12-19T01:04:28.297Z,101139.78
2022-12-19T01:05:31.517Z,101147.78
2022-12-19T01:06:33.422Z,101147.69
2022-12-19T01:07:36.229Z,101144.84
2022-12-19T01:08:38.017Z,101139.34
2022-12-19T01:09:40.879Z,101140.19
2022-12-19T01:10:45.816Z,101138.25
2022-12-19T01:12:06.330Z,101136.38
2022-12-19T01:13:09.024Z,101136.28
2022-12-19T01:14:11.421Z,101137.25
2022-12-19T01:15:14.737Z,101151.63
2022-12-19T01:16:17.480Z,101151.63
2022-12-19T01:17:20.358Z,101157.03
2022-12-19T01:18:24.408Z,101157.03
2022-12-19T01:19:26.911Z,101154.31
2022-12-19T01:20:30.155Z,101149.78
2022-12-19T01:21:31.860Z,101149.69
2022-12-19T01:22:34.614Z,101155.94
2022-12-19T01:23:36.717Z,101152.38
2022-12-19T01:24:39.595Z,101151.41
2022-12-19T01:25:43.116Z,101158.50
2022-12-19T01:26:48.770Z,101155.81
2022-12-19T01:27:50.439Z,101158.41
2022-12-19T01:28:53.175Z,101156.56
2022-12-19T01:29:54.941Z,101163.56
2022-12-19T01:30:57.587Z,101150.91
2022-12-19T01:31:59.419Z,101152.66
2022-12-19T01:33:02.610Z,101157.06
2022-12-19T01:34:05.671Z,101155.34
2022-12-19T01:35:10.857Z,101156.97
2022-12-19T01:36:23.515Z,101156.97
2022-12-19T01:37:26.170Z,101158.56
2022-12-19T01:38:27.846Z,101154.91
2022-12-19T01:39:30.737Z,101154.91
2022-12-19T01:40:34.933Z,101151.09
2022-12-19T01:41:38.487Z,101151.94
2022-12-19T01:42:40.226Z,101156.38
2022-12-19T01:43:57.947Z,101148.28
2022-12-19T01:45:25.626Z,101135.63
2022-12-19T01:46:35.513Z,101122.13
2022-12-19T01:47:45.124Z,101114.03
2022-12-19T01:48:50.154Z,101119.53
2022-12-19T01:49:53.228Z,101113.28
2022-12-19T01:51:00.830Z,101117.94
2022-12-19T01:52:05.328Z,101107.25
2022-12-19T01:53:08.773Z,101109.84
2022-12-19T01:54:13.769Z,101119.78
2022-12-19T01:55:16.012Z,101117.09
2022-12-19T01:56:22.020Z,101106.28
2022-12-19T01:57:23.788Z,101105.44
2022-12-19T01:58:26.813Z,101094.72
2022-12-19T01:59:31.688Z,101096.47
2022-12-19T02:00:34.514Z,101089.22
2022-12-19T02:01:37.312Z,101087.38
2022-12-19T02:02:55.044Z,101090.09
2022-12-19T02:03:58.133Z,101089.97
2022-12-19T02:05:02.549Z,101087.38
2022-12-19T02:06:06.179Z,101088.25
2022-12-19T02:07:16.095Z,101083.72
2022-12-19T02:08:18.772Z,101085.41
2022-12-19T02:09:24.296Z,101093.50
2022-12-19T02:10:26.059Z,101086.28
2022-12-19T02:11:28.841Z,101096.09
2022-12-19T02:12:33.623Z,101098.81
2022-12-19T02:13:36.348Z,101106.91
2022-12-19T02:14:38.421Z,101096.97
2022-12-19T02:15:48.139Z,101108.63
2022-12-19T02:16:55.437Z,101105.94
2022-12-19T02:18:15.029Z,101106.91
2022-12-19T02:19:41.857Z,101110.56
2022-12-19T02:21:11.607Z,101100.88
2022-12-19T02:22:19.204Z,101100.88
2022-12-19T02:23:47.295Z,101099.16
2022-12-19T02:25:03.330Z,101105.44
2022-12-19T02:26:35.928Z,101101.75
2022-12-19T02:27:52.741Z,101104.31
2022-12-19T02:29:07.449Z,101095.25
2022-12-19T02:30:13.552Z,101098.69
2022-12-19T02:31:20.202Z,101097.84
2022-12-19T02:32:28.507Z,101096.00
2022-12-19T02:33:33.238Z,101094.16
2022-12-19T02:34:44.241Z,101086.06
2022-12-19T02:35:51.718Z,101073.41
2022-12-19T02:36:56.752Z,101075.00
2022-12-19T02:38:09.970Z,101077.59
2022-12-19T02:39:19.381Z,101072.19
2022-12-19T02:40:23.921Z,101072.19
2022-12-19T02:41:29.689Z,101072.19
2022-12-19T02:42:33.867Z,101079.31
2022-12-19T02:43:39.475Z,101084.72
2022-12-19T02:44:45.323Z,101083.09
2022-12-19T02:45:49.214Z,101079.44
2022-12-19T02:46:52.968Z,101083.09
2022-12-19T02:47:56.102Z,101082.13
2022-12-19T02:48:58.761Z,101078.56
2022-12-19T02:50:01.585Z,101079.44
2022-12-19T02:51:03.496Z,101085.69
2022-12-19T02:52:12.714Z,101085.56
2022-12-19T02:53:15.918Z,101093.56
2022-12-19T02:54:18.698Z,101097.00
2022-12-19T02:55:23.044Z,101094.31
2022-12-19T02:56:35.284Z,101085.22
2022-12-19T02:57:43.195Z,101086.94
2022-12-19T02:58:52.335Z,101085.94
2022-12-19T03:00:00.524Z,101083.25
2022-12-19T03:01:14.394Z,101079.59
2022-12-19T03:02:24.420Z,101072.19
2022-12-19T03:03:32.564Z,101071.22
2022-12-19T03:04:41.661Z,101068.41
2022-12-19T03:05:49.703Z,101064.00
2022-12-19T03:06:54.412Z,101056.75
2022-12-19T03:08:02.885Z,101056.75
2022-12-19T03:09:10.148Z,101064.84
2022-12-19T03:10:19.604Z,101062.25
2022-12-19T03:11:22.464Z,101053.19
2022-12-19T03:12:28.109Z,101061.41
2022-12-19T03:13:32.662Z,101050.59
2022-12-19T03:14:36.010Z,101054.16
2022-12-19T03:15:38.543Z,101053.19
2022-12-19T03:16:42.504Z,101053.06
2022-12-19T03:17:46.093Z,101054.78
2022-12-19T03:18:48.797Z,101050.38
2022-12-19T03:19:50.525Z,101051.22
2022-12-19T03:20:56.356Z,101044.00
2022-12-19T03:21:58.152Z,101041.41
2022-12-19T03:23:00.837Z,101051.09
2022-12-19T03:24:03.903Z,101057.34
2022-12-19T03:25:08.292Z,101051.09
2022-12-19T03:26:12.806Z,101052.81
2022-12-19T03:27:19.333Z,101055.53
2022-12-19T03:28:24.369Z,101059.94
2022-12-19T03:29:31.245Z,101053.69
2022-12-19T03:30:33.911Z,101059.84
2022-12-19T03:31:37.168Z,101055.41
2022-12-19T03:32:42.516Z,101058.09
2022-12-19T03:33:47.920Z,101062.66
2022-12-19T03:34:52.267Z,101055.53
2022-12-19T03:35:55.703Z,101060.91
2022-12-19T03:37:00.123Z,101052.81
2022-12-19T03:38:04.170Z,101057.34
2022-12-19T03:39:07.599Z,101053.78
2022-12-19T03:40:13.881Z,101060.19
2022-12-19T03:41:17.177Z,101061.19
2022-12-19T03:42:38.520Z,101062.03
2022-12-19T03:43:42.681Z,101063.88
2022-12-19T03:44:44.992Z,101068.31
2022-12-19T03:45:52.000Z,101072.69
2022-12-19T03:46:58.634Z,101065.34
2022-12-19T03:48:06.709Z,101066.09
2022-12-19T03:49:09.819Z,101063.25
2022-12-19T03:50:13.782Z,101057.75
2022-12-19T03:51:20.701Z,101054.94
2022-12-19T03:52:27.803Z,101058.25
2022-12-19T03:53:38.566Z,101050.13
2022-12-19T03:54:43.143Z,101041.91
2022-12-19T03:55:48.194Z,101050.75
2022-12-19T03:56:53.996Z,101052.47
2022-12-19T03:57:58.779Z,101055.94
2022-12-19T03:59:03.824Z,101054.91
2022-12-19T04:00:07.301Z,101047.69
2022-12-19T04:01:11.016Z,101058.38
2022-12-19T04:02:14.382Z,101060.22
2022-12-19T04:03:18.115Z,101057.50
2022-12-19T04:04:21.969Z,101056.66
2022-12-19T04:05:27.182Z,101056.53
2022-12-19T04:06:30.647Z,101058.38
2022-12-19T04:07:33.692Z,101060.97
2022-12-19T04:08:35.777Z,101058.25
2022-12-19T04:09:39.065Z,101057.41
2022-12-19T04:10:44.625Z,101052.00
2022-12-19T04:11:52.269Z,101054.56
2022-12-19T04:12:58.271Z,101052.72
2022-12-19T04:14:03.574Z,101057.16
2022-12-19T04:15:06.454Z,101053.47
2022-12-19T04:16:14.316Z,101056.06
2022-12-19T04:17:21.193Z,101053.34
2022-12-19T04:18:24.263Z,101054.06
2022-12-19T04:19:31.040Z,101048.66
2022-12-19T04:20:35.835Z,101056.66
2022-12-19T04:21:43.623Z,101050.41
2022-12-19T04:22:52.140Z,101064.78
2022-12-19T04:23:57.547Z,101061.19
2022-12-19T04:25:03.175Z,101060.22
2022-12-19T04:26:05.843Z,101060.22
2022-12-19T04:27:09.750Z,101061.09
2022-12-19T04:28:15.192Z,101061.91
2022-12-19T04:29:18.106Z,101050.28
2022-12-19T04:30:20.209Z,101052.97
2022-12-19T04:31:23.210Z,101048.41
2022-12-19T04:32:25.556Z,101050.13
2022-12-19T04:33:28.376Z,101042.78
2022-12-19T04:34:31.660Z,101043.66
2022-12-19T04:35:35.648Z,101038.25
2022-12-19T04:36:38.514Z,101042.63
2022-12-19T04:37:40.600Z,101041.53
2022-12-19T04:38:43.500Z,101041.53
2022-12-19T04:39:45.278Z,101040.69
2022-12-19T04:40:47.968Z,101038.94
2022-12-19T04:41:49.648Z,101036.25
2022-12-19T04:42:52.380Z,101037.22
2022-12-19T04:43:54.114Z,101032.84
2022-12-19T04:44:56.858Z,101038.25
2022-12-19T04:45:58.587Z,101020.41
2022-12-19T04:47:01.284Z,101032.19
2022-12-19T04:48:03.218Z,101028.66
2022-12-19T04:49:05.988Z,101020.66
2022-12-19T04:50:10.017Z,101018.06
2022-12-19T04:51:12.750Z,101020.78
2022-12-19T04:52:14.463Z,101018.06
2022-12-19T04:53:17.317Z,101019.91
2022-12-19T04:54:19.303Z,101018.06
2022-12-19T04:55:22.014Z,101017.22
2022-12-19T04:56:23.691Z,101020.78
2022-12-19T04:57:26.429Z,101013.66
2022-12-19T04:58:28.153Z,101022.75
2022-12-19T04:59:32.264Z,101020.16
2022-12-19T05:00:34.612Z,101018.44
2022-12-19T05:01:37.605Z,101013.91
2022-12-19T05:02:39.518Z,101017.47
2022-12-19T05:03:42.523Z,101011.19
2022-12-19T05:04:44.406Z,101008.63
2022-12-19T05:05:48.397Z,101008.63
2022-12-19T05:06:50.148Z,101006.78
2022-12-19T05:07:52.903Z,101008.00
2022-12-19T05:08:55.619Z,101003.47
2022-12-19T05:10:01.419Z,101004.44
2022-12-19T05:11:03.506Z,101005.31
2022-12-19T05:12:06.632Z,101014.28
2022-12-19T05:13:09.216Z,101016.97
2022-12-19T05:14:13.393Z,101013.31
2022-12-19T05:15:15.240Z,101014.00
2022-12-19T05:16:18.108Z,101021.03
2022-12-19T05:17:19.905Z,101020.91
2022-12-19T05:18:22.563Z,101020.78
2022-12-19T05:19:25.337Z,101017.97
2022-12-19T05:20:27.061Z,101018.69
2022-12-19T05:21:31.154Z,101025.69
2022-12-19T05:22:32.830Z,101023.84
2022-12-19T05:23:35.773Z,101027.44
2022-12-19T05:24:38.534Z,101032.56
2022-12-19T05:25:40.293Z,101027.91
2022-12-19T05:26:43.127Z,101034.91
2022-12-19T05:27:44.840Z,101035.66
2022-12-19T05:28:48.831Z,101035.66
2022-12-19T05:29:50.706Z,101038.22
2022-12-19T05:30:53.409Z,101043.63
2022-12-19T05:31:55.241Z,101039.81
2022-12-19T05:32:57.934Z,101034.41
2022-12-19T05:33:59.618Z,101025.31
2022-12-19T05:35:02.413Z,101026.19
2022-12-19T05:36:04.769Z,101021.50
2022-12-19T05:37:08.831Z,101019.66
2022-12-19T05:38:10.557Z,101015.13
2022-12-19T05:39:13.263Z,101012.28
2022-12-19T05:40:15.121Z,101014.00
2022-12-19T05:41:19.929Z,101013.00
2022-12-19T05:42:21.658Z,101018.31
2022-12-19T05:43:24.684Z,101020.03
2022-12-19T05:44:26.400Z,101020.75
2022-12-19T05:45:29.444Z,101024.31
2022-12-19T05:46:31.209Z,101024.19
2022-12-19T05:47:33.959Z,101030.47
2022-12-19T05:48:36.093Z,101024.19
2022-12-19T05:49:41.963Z,101025.78
2022-12-19T05:50:47.600Z,101022.94
2022-12-19T05:51:50.243Z,101021.97
2022-12-19T05:52:53.318Z,101021.97
2022-12-19T05:53:56.080Z,101011.00
2022-12-19T05:54:57.827Z,101017.28
2022-12-19T05:56:04.924Z,101016.31
2022-12-19T05:57:06.591Z,101012.63
2022-12-19T05:58:09.359Z,101013.47
2022-12-19T05:59:11.862Z,101008.94
2022-12-19T06:00:16.314Z,101014.19
2022-12-19T06:01:20.623Z,101019.50
2022-12-19T06:02:23.583Z,101017.66
2022-12-19T06:03:31.676Z,101013.97
2022-12-19T06:04:36.962Z,101024.78
2022-12-19T06:05:38.985Z,101020.22
2022-12-19T06:06:41.730Z,101017.38
2022-12-19T06:07:43.493Z,101011.09
2022-12-19T06:08:47.909Z,101010.00
2022-12-19T06:09:49.716Z,101018.13
2022-12-19T06:10:52.523Z,101013.59
2022-12-19T06:11:55.216Z,101010.72
2022-12-19T06:12:56.967Z,101003.47
2022-12-19T06:13:59.677Z,101006.19
2022-12-19T06:15:01.447Z,101012.44
2022-12-19T06:16:05.833Z,101003.34
2022-12-19T06:17:07.512Z,101010.50
2022-12-19T06:18:10.243Z,101007.78
2022-12-19T06:19:13.926Z,101006.81
2022-12-19T06:20:16.767Z,101001.41
2022-12-19T06:21:20.446Z,101003.25
2022-12-19T06:22:23.996Z,101007.78
2022-12-19T06:23:27.085Z,101008.66
2022-12-19T06:24:31.424Z,101002.38
2022-12-19T06:25:33.141Z,101006.81
2022-12-19T06:26:35.864Z,101001.25
2022-12-19T06:30:00.984Z,101018.09
2022-12-19T06:31:06.851Z,101027.06
2022-12-19T06:32:10.611Z,101023.53
2022-12-19T06:33:12.690Z,101025.22
2022-12-19T06:34:33.184Z,101030.63
2022-12-19T06:35:38.215Z,101024.34
2022-12-19T06:36:39.907Z,101021.78
2022-12-19T06:37:42.580Z,101016.38
2022-12-19T06:38:44.343Z,101012.69
2022-12-19T06:39:48.951Z,101010.00
2022-12-19T06:41:09.056Z,101006.41
2022-12-19T06:42:23.332Z,101007.28
2022-12-19T06:43:25.745Z,101000.00
2022-12-19T06:44:28.537Z,101014.38
2022-12-19T06:45:31.517Z,101020.56
2022-12-19T06:46:34.473Z,101016.16
2022-12-19T06:47:36.130Z,101023.28
2022-12-19T06:48:38.902Z,101015.03
2022-12-19T06:49:40.572Z,101024.84
2022-12-19T06:50:43.313Z,101015.91
2022-12-19T06:51:45.176Z,101023.00
2022-12-19T06:52:48.894Z,101013.91
2022-12-19T06:53:50.914Z,101017.50
2022-12-19T06:54:55.014Z,101022.03
2022-12-19T06:55:58.349Z,101020.19
2022-12-19T06:57:01.322Z,101019.06
2022-12-19T06:58:03.394Z,101016.25
2022-12-19T06:59:06.900Z,101021.53
2022-12-19T07:00:11.479Z,101022.50
2022-12-19T07:01:18.975Z,101018.72
2022-12-19T07:02:27.269Z,101013.41
2022-12-19T07:03:31.615Z,101015.13
2022-12-19T07:04:37.037Z,101006.88
2022-12-19T07:05:39.013Z,101006.88
2022-12-19T07:06:47.333Z,101008.72
2022-12-19T07:07:51.635Z,101005.03
2022-12-19T07:08:53.512Z,101003.19
2022-12-19T07:09:57.598Z,101000.47
2022-12-19T07:10:59.926Z,101003.06
2022-12-19T07:12:02.981Z,101007.72
2022-12-19T07:13:05.670Z,101016.59
2022-12-19T07:14:07.430Z,101012.16
2022-12-19T07:15:13.317Z,101007.88
2022-12-19T07:16:15.110Z,101007.88
2022-12-19T07:17:17.941Z,101010.72
2022-12-19T07:18:19.809Z,100999.03
2022-12-19T07:19:23.839Z,100996.19
2022-12-19T07:20:25.754Z,100994.34
2022-12-19T07:21:28.974Z,100999.63
2022-12-19T07:22:34.153Z,100997.78
2022-12-19T07:23:36.001Z,100992.34
2022-12-19T07:24:38.869Z,100996.91
2022-12-19T07:25:42.140Z,100990.63
2022-12-19T07:26:45.959Z,100996.03
2022-12-19T07:27:48.035Z,100997.88
2022-12-19T07:28:50.806Z,100982.41
2022-12-19T07:29:52.501Z,100984.34
2022-12-19T07:30:55.401Z,100977.84
2022-12-19T07:31:57.271Z,100973.28
2022-12-19T07:32:59.991Z,100986.69
2022-12-19T07:34:02.685Z,100988.41
2022-12-19T07:35:05.070Z,100987.41
2022-12-19T07:36:08.286Z,100999.09
2022-12-19T07:37:10.983Z,101000.81
2022-12-19T07:38:13.896Z,100995.53
2022-12-19T07:39:16.561Z,100993.81
2022-12-19T07:40:18.353Z,100985.56
2022-12-19T07:41:22.530Z,100993.56
2022-12-19T07:42:28.179Z,101005.25
2022-12-19T07:43:35.123Z,100989.03
2022-12-19T07:44:37.769Z,100994.44
2022-12-19T07:45:39.569Z,101000.69
2022-12-19T07:46:42.333Z,101006.09
2022-12-19T07:47:45.024Z,101016.69
2022-12-19T07:48:47.943Z,101003.84
2022-12-19T07:49:50.772Z,101003.84
2022-12-19T07:50:53.507Z,101006.44
2022-12-19T07:51:55.306Z,101016.41
2022-12-19T07:52:58.887Z,101009.28
2022-12-19T07:54:01.631Z,101014.84
2022-12-19T07:55:05.367Z,101012.53
2022-12-19T07:56:09.295Z,101010.03
2022-12-19T07:57:12.861Z,101010.44
2022-12-19T07:58:15.523Z,101013.41
2022-12-19T07:59:17.410Z,101012.81
2022-12-19T08:00:21.722Z,101016.63
2022-12-19T08:01:28.892Z,101014.03
2022-12-19T08:02:31.745Z,101017.88
2022-12-19T08:03:36.049Z,101018.59
2022-12-19T08:04:37.880Z,101026.13
2022-12-19T08:05:40.564Z,101030.78
2022-12-19T08:06:43.320Z,101024.31
2022-12-19T08:07:46.126Z,101016.41
2022-12-19T08:08:49.226Z,101023.69
2022-12-19T08:09:51.065Z,101018.41
2022-12-19T08:10:53.868Z,101011.00
2022-12-19T08:11:56.758Z,101007.31
2022-12-19T08:12:59.909Z,101013.34
2022-12-19T08:14:02.878Z,101004.13
2022-12-19T08:15:07.797Z,101006.72
2022-12-19T08:16:11.681Z,101005.47
2022-12-19T08:17:21.295Z,101007.03
2022-12-19T08:18:25.649Z,101005.94
2022-12-19T08:19:28.343Z,101003.09
2022-12-19T08:20:31.215Z,100995.84
2022-12-19T08:21:32.882Z,101003.84
2022-12-19T08:22:35.790Z,100998.41
2022-12-19T08:23:38.809Z,100996.56
2022-12-19T08:24:41.562Z,100996.31
2022-12-19T08:25:44.286Z,100995.38
2022-12-19T08:26:47.886Z,100988.84
2022-12-19T08:27:50.659Z,100994.13
2022-12-19T08:28:56.195Z,100991.16
2022-12-19T08:29:57.911Z,100985.59
2022-12-19T08:31:01.260Z,100984.50
2022-12-19T08:32:03.944Z,100977.97
2022-12-19T08:33:05.872Z,100982.28
2022-12-19T08:34:08.632Z,100982.00
2022-12-19T08:35:11.285Z,100984.44
2022-12-19T08:36:14.904Z,100978.91
2022-12-19T08:37:17.735Z,100983.34
2022-12-19T08:38:20.469Z,100979.66
2022-12-19T08:39:23.211Z,100984.91
2022-12-19T08:40:25.951Z,100986.75
2022-12-19T08:41:28.918Z,100986.63
2022-12-19T08:42:33.515Z,100983.81
2022-12-19T08:43:36.332Z,100993.88
2022-12-19T08:44:40.470Z,100994.03
2022-12-19T08:45:43.245Z,101003.25
2022-12-19T08:46:49.928Z,100990.00
2022-12-19T08:47:53.311Z,100997.38
2022-12-19T08:48:56.093Z,100990.41
2022-12-19T08:49:58.845Z,100979.69
2022-12-19T08:51:03.582Z,100982.41
2022-12-19T08:52:06.399Z,100995.94
2022-12-19T08:53:08.142Z,100992.63
2022-12-19T08:54:12.205Z,100990.03
2022-12-19T08:55:14.867Z,100992.16
2022-12-19T08:56:19.508Z,100997.81
2022-12-19T08:57:22.341Z,100995.38
2022-12-19T08:58:26.599Z,100990.03
2022-12-19T08:59:31.713Z,100984.63
2022-12-19T09:00:35.300Z,100987.34
2022-12-19T09:01:38.201Z,100989.09
2022-12-19T09:02:41.053Z,100983.56
2022-12-19T09:03:50.238Z,100982.44
2022-12-19T09:05:58.839Z,100983.19
2022-12-19T09:06:29.977Z,100994.72
2022-12-19T09:07:34.586Z,100992.88
2022-12-19T09:08:41.985Z,100995.44
2022-12-19T09:09:44.807Z,100995.44
2022-12-19T09:10:47.580Z,101001.84
2022-12-19T09:11:50.304Z,100998.53
2022-12-19T09:12:56.445Z,100994.13
2022-12-19T09:14:00.828Z,100999.53
2022-12-19T09:15:03.483Z,100998.53
2022-12-19T09:16:10.021Z,101003.69
2022-12-19T09:17:12.776Z,101003.44
2022-12-19T09:18:15.670Z,100998.03
2022-12-19T09:19:19.016Z,100999.75
2022-12-19T09:20:23.368Z,101000.59
2022-12-19T09:21:29.936Z,101002.31
2022-12-19T09:22:32.813Z,101001.59
2022-12-19T09:23:34.744Z,101000.75
2022-12-19T09:24:37.745Z,100993.50
2022-12-19T09:25:41.341Z,100987.94
2022-12-19T09:26:44.754Z,100993.22
2022-12-19T09:28:17.991Z,100990.41
2022-12-19T09:29:19.610Z,100982.97
2022-12-19T09:30:22.970Z,100986.56
2022-12-19T09:31:27.878Z,100989.13
2022-12-19T09:32:30.949Z,100976.59
2022-12-19T09:33:41.211Z,100984.59
2022-12-19T09:34:46.002Z,100980.03
2022-12-19T09:35:50.063Z,100987.28
2022-12-19T09:36:54.057Z,100991.56
2022-12-19T09:38:00.030Z,100984.31
2022-12-19T09:39:03.332Z,100979.66
2022-12-19T09:40:06.148Z,100984.78
2022-12-19T09:41:24.517Z,100984.50
2022-12-19T09:42:50.762Z,100994.25
2022-12-19T09:43:59.487Z,101006.63
2022-12-19T09:45:31.699Z,100998.41
2022-12-19T09:46:41.178Z,100999.16
2022-12-19T09:47:45.694Z,101000.00
2022-12-19T09:48:54.557Z,101006.25
2022-12-19T09:49:57.929Z,101004.41
2022-12-19T09:51:10.367Z,101002.56
2022-12-19T09:52:16.884Z,101006.13
2022-12-19T09:53:24.356Z,101000.72
2022-12-19T09:54:29.074Z,100999.72
2022-12-19T09:55:34.273Z,100992.31
2022-12-19T09:56:46.521Z,100992.31
2022-12-19T09:57:53.033Z,100995.66
2022-12-19T09:58:59.932Z,101002.63
2022-12-19T10:00:07.263Z,100993.53
2022-12-19T10:01:18.560Z,100995.97
2022-12-19T10:02:34.211Z,100991.28
2022-12-19T10:03:39.271Z,100993.88
2022-12-19T10:04:49.260Z,100991.00
2022-12-19T10:06:49.698Z,100997.16
2022-12-19T10:07:51.388Z,100988.06
2022-12-19T10:09:02.578Z,100985.19
2022-12-19T10:12:34.743Z,100979.66
2022-12-19T10:12:40.177Z,100971.41
2022-12-19T10:13:15.250Z,100971.69
2022-12-19T10:14:31.411Z,100976.00
2022-12-19T10:15:42.611Z,100980.28
2022-12-19T10:17:22.073Z,100977.34
2022-12-19T10:18:42.451Z,100962.78
2022-12-19T10:19:56.328Z,100967.94
2022-12-19T10:21:04.897Z,100962.38
2022-12-19T10:22:18.635Z,100965.06
2022-12-19T10:23:39.284Z,100958.66
2022-12-19T10:25:06.709Z,100954.97
2022-12-19T10:26:17.789Z,100952.13
2022-12-19T10:27:27.802Z,100955.56
2022-12-19T10:28:47.834Z,100951.84
2022-12-19T10:30:02.411Z,100949.03
2022-12-19T10:31:20.651Z,100956.16
2022-12-19T10:32:29.965Z,100957.00
2022-12-19T10:33:37.101Z,100956.00
2022-12-19T10:34:44.353Z,100953.16
2022-12-19T10:35:49.315Z,100954.03
2022-12-19T10:38:25.711Z,100949.31
2022-12-19T10:39:32.673Z,100956.63
2022-12-19T10:40:38.222Z,100956.75
2022-12-19T10:41:44.321Z,100955.16
2022-12-19T10:42:51.475Z,100957.28
2022-12-19T10:43:59.233Z,100958.25
2022-12-19T10:45:06.026Z,100952.13
2022-12-19T10:46:14.652Z,100948.56
2022-12-19T10:47:18.217Z,100953.88
2022-12-19T10:48:27.740Z,100958.25
2022-12-19T10:49:33.954Z,100958.13
2022-12-19T10:50:37.961Z,100948.16
2022-12-19T10:51:40.929Z,100947.00
2022-12-19T10:52:52.160Z,100947.63
2022-12-19T10:53:55.516Z,100957.31
2022-12-19T10:54:58.217Z,100955.47
2022-12-19T10:56:02.411Z,100949.06
2022-12-19T10:57:19.206Z,100954.19
2022-12-19T10:58:25.018Z,100953.34
2022-12-19T10:59:27.793Z,100950.78
2022-12-19T11:00:32.896Z,100942.66
2022-12-19T11:01:36.982Z,100938.06
2022-12-19T11:02:42.278Z,100936.09
2022-12-19T11:03:50.047Z,100926.97
2022-12-19T11:04:53.806Z,100929.56
2022-12-19T11:05:59.429Z,100926.56
2022-12-19T11:07:20.489Z,100924.53
2022-12-19T11:08:26.360Z,100916.16
2022-12-19T11:09:31.291Z,100917.72
2022-12-19T11:11:03.978Z,100913.91
2022-12-19T11:14:46.859Z,100918.31
2022-12-19T11:19:27.910Z,100907.06
2022-12-19T11:19:30.445Z,100911.75
2022-12-19T11:21:37.127Z,100902.63
2022-12-19T11:28:24.504Z,100903.63
2022-12-19T11:29:32.462Z,100905.91
2022-12-19T11:29:32.575Z,100901.78
2022-12-19T11:29:32.671Z,100902.50
2022-12-19T11:29:33.343Z,100903.50
2022-12-19T11:29:38.939Z,100902.91
2022-12-19T11:29:42.537Z,100899.50
2022-12-19T11:30:46.073Z,100903.06
2022-12-19T11:32:40.958Z,100900.50
2022-12-19T11:33:46.823Z,100905.91
2022-12-19T11:34:51.405Z,100906.78
2022-12-19T11:35:55.736Z,100894.09
2022-12-19T11:37:03.957Z,100899.38
2022-12-19T11:38:08.456Z,100892.81
2022-12-19T11:39:17.780Z,100896.38
2022-12-19T11:40:29.783Z,100892.50
2022-12-19T11:41:35.106Z,100892.38
2022-12-19T11:42:42.878Z,100891.53
2022-12-19T11:43:53.377Z,100887.81
2022-12-19T11:45:01.381Z,100884.13
2022-12-19T11:46:05.897Z,100883.13
2022-12-19T11:47:18.176Z,100880.25
2022-12-19T11:48:25.442Z,100886.28
2022-12-19T11:49:31.140Z,100885.25
2022-12-19T11:50:43.459Z,100881.53
2022-12-19T11:51:50.135Z,100885.00
2022-12-19T11:53:04.452Z,100888.41
2022-12-19T11:54:15.159Z,100887.53
2022-12-19T11:55:21.811Z,100886.69
2022-12-19T11:56:27.852Z,100885.97
2022-12-19T11:57:32.328Z,100881.53
2022-12-19T11:58:35.029Z,100880.69
2022-12-19T11:59:39.754Z,100881.41
2022-12-19T12:00:48.536Z,100883.97
2022-12-19T12:02:02.072Z,100889.25
2022-12-19T12:03:29.887Z,100881.84
2022-12-19T12:04:59.477Z,100872.84
2022-12-19T12:06:05.860Z,100865.72
2022-12-19T12:07:22.561Z,100877.53
2022-12-19T12:12:15.696Z,100875.81
2022-12-19T12:15:26.885Z,100866.84
2022-12-19T12:17:48.828Z,100857.69
2022-12-19T12:19:56.430Z,100863.28
2022-12-19T12:26:19.084Z,100864.84
2022-12-19T12:29:43.043Z,100869.28
2022-12-19T12:31:07.463Z,100857.28
2022-12-19T12:31:10.064Z,100851.16
2022-12-19T12:31:16.817Z,100854.84
2022-12-19T12:31:21.671Z,100853.72
2022-12-19T12:31:43.771Z,100858.00
2022-12-19T12:31:52.921Z,100857.28
2022-12-19T12:32:00.736Z,100859.00
2022-12-19T12:32:05.071Z,100862.44
2022-12-19T12:32:06.160Z,100859.00
2022-12-19T12:35:38.336Z,100834.44
2022-12-19T12:35:40.933Z,100844.31
2022-12-19T12:37:10.926Z,100835.00
2022-12-19T12:38:22.542Z,100820.44
2022-12-19T12:39:33.704Z,100824.88
2022-12-19T12:40:52.861Z,100820.16
2022-12-19T12:42:03.742Z,100816.59
2022-12-19T12:43:17.316Z,100818.31
2022-12-19T12:44:22.644Z,100821.75
2022-12-19T12:45:37.659Z,100826.19
2022-12-19T12:46:42.252Z,100825.03
2022-12-19T12:47:45.553Z,100821.31
2022-12-19T12:48:51.621Z,100817.59